sensor_id;sensor_type;location;lat;lon;timestamp;P1;durP1;ratioP1;P2;durP2;ratioP2
30888;SDS011;51092;50.874;7.024;2022-08-21T00:00:59;16.90;;;10.00;;
30888;SDS011;51092;50.874;7.024;2022-08-21T00:02:04;19.30;;;10.77;;
30888;SDS011;51092;50.874;7.024;2022-08-21T00:03:15;17.08;;;10.13;;
30888;SDS011;51092;50.874;7.024;2022-08-21T00:04:19;14.82;;;9.77;;
30888;SDS011;51092;50.874;7.024;2022-08-21T00:05:22;18.65;;;10.55;;
30888;SDS011;51092;50.874;7.024;2022-08-21T00:06:25;15.75;;;9.50;;
30888;SDS011;51092;50.874;7.024;2022-08-21T00:07:27;14.40;;;9.77;;
30888;SDS011;51092;50.874;7.024;2022-08-21T00:08:30;19.88;;;9.95;;
30888;SDS011;51092;50.874;7.024;2022-08-21T00:09:35;21.50;;;10.70;;
30888;SDS011;51092;50.874;7.024;2022-08-21T00:10:37;16.73;;;9.82;;
30888;SDS011;51092;50.874;7.024;2022-08-21T00:11:40;12.88;;;10.10;;
30888;SDS011;51092;50.874;7.024;2022-08-21T00:12:43;18.98;;;10.23;;
30888;SDS011;51092;50.874;7.024;2022-08-21T00:13:48;17.73;;;11.38;;
30888;SDS011;51092;50.874;7.024;2022-08-21T00:14:50;22.27;;;11.00;;
30888;SDS011;51092;50.874;7.024;2022-08-21T00:15:52;18.77;;;11.85;;
30888;SDS011;51092;50.874;7.024;2022-08-21T00:16:55;18.85;;;12.38;;
30888;SDS011;51092;50.874;7.024;2022-08-21T00:17:58;20.95;;;13.05;;
30888;SDS011;51092;50.874;7.024;2022-08-21T00:19:00;23.42;;;11.73;;
30888;SDS011;51092;50.874;7.024;2022-08-21T00:20:03;18.20;;;11.60;;
30888;SDS011;51092;50.874;7.024;2022-08-21T00:21:05;13.93;;;11.18;;
30888;SDS011;51092;50.874;7.024;2022-08-21T00:22:07;19.40;;;11.38;;
30888;SDS011;51092;50.874;7.024;2022-08-21T00:23:08;13.00;;;9.50;;
30888;SDS011;51092;50.874;7.024;2022-08-21T00:24:12;17.90;;;11.35;;
30888;SDS011;51092;50.874;7.024;2022-08-21T00:25:14;14.40;;;11.00;;
30888;SDS011;51092;50.874;7.024;2022-08-21T00:26:17;19.13;;;12.10;;
30888;SDS011;51092;50.874;7.024;2022-08-21T00:27:19;20.75;;;11.85;;
30888;SDS011;51092;50.874;7.024;2022-08-21T00:28:21;17.15;;;11.20;;
30888;SDS011;51092;50.874;7.024;2022-08-21T00:29:24;14.65;;;11.07;;
30888;SDS011;51092;50.874;7.024;2022-08-21T00:30:26;17.02;;;11.07;;
30888;SDS011;51092;50.874;7.024;2022-08-21T00:31:28;18.48;;;11.95;;
30888;SDS011;51092;50.874;7.024;2022-08-21T00:32:30;21.52;;;12.90;;
30888;SDS011;51092;50.874;7.024;2022-08-21T00:33:32;16.10;;;11.98;;
30888;SDS011;51092;50.874;7.024;2022-08-21T00:34:34;17.55;;;12.25;;
30888;SDS011;51092;50.874;7.024;2022-08-21T00:35:40;25.23;;;14.07;;
30888;SDS011;51092;50.874;7.024;2022-08-21T00:36:43;21.58;;;13.63;;
30888;SDS011;51092;50.874;7.024;2022-08-21T00:37:45;16.38;;;13.65;;
30888;SDS011;51092;50.874;7.024;2022-08-21T00:38:47;22.50;;;14.68;;
30888;SDS011;51092;50.874;7.024;2022-08-21T00:39:50;21.00;;;14.10;;
30888;SDS011;51092;50.874;7.024;2022-08-21T00:40:53;19.58;;;13.05;;
30888;SDS011;51092;50.874;7.024;2022-08-21T00:42:01;19.15;;;13.15;;
30888;SDS011;51092;50.874;7.024;2022-08-21T00:43:03;15.90;;;12.77;;
30888;SDS011;51092;50.874;7.024;2022-08-21T00:44:11;22.45;;;13.43;;
30888;SDS011;51092;50.874;7.024;2022-08-21T00:45:15;20.08;;;13.98;;
30888;SDS011;51092;50.874;7.024;2022-08-21T00:46:16;19.48;;;13.20;;
30888;SDS011;51092;50.874;7.024;2022-08-21T00:47:19;17.02;;;13.18;;
30888;SDS011;51092;50.874;7.024;2022-08-21T00:48:24;17.70;;;13.98;;
30888;SDS011;51092;50.874;7.024;2022-08-21T00:49:27;18.45;;;14.25;;
30888;SDS011;51092;50.874;7.024;2022-08-21T00:50:31;18.27;;;12.70;;
30888;SDS011;51092;50.874;7.024;2022-08-21T00:51:50;23.45;;;13.27;;
30888;SDS011;51092;50.874;7.024;2022-08-21T00:52:54;19.15;;;14.13;;
30888;SDS011;51092;50.874;7.024;2022-08-21T00:53:59;21.75;;;13.85;;
30888;SDS011;51092;50.874;7.024;2022-08-21T00:55:04;18.75;;;13.60;;
30888;SDS011;51092;50.874;7.024;2022-08-21T00:56:08;21.95;;;14.27;;
30888;SDS011;51092;50.874;7.024;2022-08-21T00:57:12;23.38;;;14.63;;
30888;SDS011;51092;50.874;7.024;2022-08-21T00:58:19;17.90;;;13.95;;
30888;SDS011;51092;50.874;7.024;2022-08-21T00:59:22;21.17;;;15.02;;
30888;SDS011;51092;50.874;7.024;2022-08-21T01:00:27;28.27;;;14.43;;
30888;SDS011;51092;50.874;7.024;2022-08-21T01:01:33;22.10;;;13.20;;
30888;SDS011;51092;50.874;7.024;2022-08-21T01:02:35;19.55;;;14.35;;
30888;SDS011;51092;50.874;7.024;2022-08-21T01:03:37;20.05;;;13.93;;
30888;SDS011;51092;50.874;7.024;2022-08-21T01:04:39;27.20;;;15.68;;
30888;SDS011;51092;50.874;7.024;2022-08-21T01:05:42;21.15;;;14.13;;
30888;SDS011;51092;50.874;7.024;2022-08-21T01:06:45;24.00;;;13.98;;
30888;SDS011;51092;50.874;7.024;2022-08-21T01:07:47;17.85;;;14.15;;
30888;SDS011;51092;50.874;7.024;2022-08-21T01:08:49;16.98;;;12.98;;
30888;SDS011;51092;50.874;7.024;2022-08-21T01:09:50;19.15;;;12.65;;
30888;SDS011;51092;50.874;7.024;2022-08-21T01:10:55;24.50;;;15.68;;
30888;SDS011;51092;50.874;7.024;2022-08-21T01:11:57;20.45;;;12.88;;
30888;SDS011;51092;50.874;7.024;2022-08-21T01:13:00;16.02;;;11.98;;
30888;SDS011;51092;50.874;7.024;2022-08-21T01:14:02;18.10;;;12.40;;
30888;SDS011;51092;50.874;7.024;2022-08-21T01:15:05;19.17;;;11.98;;
30888;SDS011;51092;50.874;7.024;2022-08-21T01:16:08;16.25;;;11.85;;
30888;SDS011;51092;50.874;7.024;2022-08-21T01:17:12;14.15;;;11.07;;
30888;SDS011;51092;50.874;7.024;2022-08-21T01:18:16;23.45;;;13.05;;
30888;SDS011;51092;50.874;7.024;2022-08-21T01:19:19;19.00;;;11.68;;
30888;SDS011;51092;50.874;7.024;2022-08-21T01:20:22;22.55;;;12.52;;
30888;SDS011;51092;50.874;7.024;2022-08-21T01:21:26;20.67;;;12.23;;
30888;SDS011;51092;50.874;7.024;2022-08-21T01:22:28;18.10;;;11.93;;
30888;SDS011;51092;50.874;7.024;2022-08-21T01:23:31;20.33;;;11.70;;
30888;SDS011;51092;50.874;7.024;2022-08-21T01:24:34;20.38;;;12.00;;
30888;SDS011;51092;50.874;7.024;2022-08-21T01:25:37;19.83;;;12.23;;
30888;SDS011;51092;50.874;7.024;2022-08-21T01:26:39;21.63;;;12.60;;
30888;SDS011;51092;50.874;7.024;2022-08-21T01:27:43;22.35;;;12.00;;
30888;SDS011;51092;50.874;7.024;2022-08-21T01:28:45;21.13;;;11.85;;
30888;SDS011;51092;50.874;7.024;2022-08-21T01:29:53;21.75;;;11.30;;
30888;SDS011;51092;50.874;7.024;2022-08-21T01:30:58;20.50;;;12.57;;
30888;SDS011;51092;50.874;7.024;2022-08-21T01:32:04;22.02;;;12.23;;
30888;SDS011;51092;50.874;7.024;2022-08-21T01:33:07;20.05;;;11.48;;
30888;SDS011;51092;50.874;7.024;2022-08-21T01:34:10;15.73;;;11.75;;
30888;SDS011;51092;50.874;7.024;2022-08-21T01:35:12;19.73;;;12.95;;
30888;SDS011;51092;50.874;7.024;2022-08-21T01:36:17;17.50;;;12.35;;
30888;SDS011;51092;50.874;7.024;2022-08-21T01:37:21;16.10;;;11.40;;
30888;SDS011;51092;50.874;7.024;2022-08-21T01:38:24;21.88;;;12.45;;
30888;SDS011;51092;50.874;7.024;2022-08-21T01:39:26;23.42;;;11.43;;
30888;SDS011;51092;50.874;7.024;2022-08-21T01:40:29;21.95;;;12.15;;
30888;SDS011;51092;50.874;7.024;2022-08-21T01:41:31;25.17;;;13.15;;
30888;SDS011;51092;50.874;7.024;2022-08-21T01:42:34;20.63;;;12.27;;
30888;SDS011;51092;50.874;7.024;2022-08-21T01:43:35;23.67;;;11.60;;
30888;SDS011;51092;50.874;7.024;2022-08-21T01:44:38;19.20;;;11.52;;
30888;SDS011;51092;50.874;7.024;2022-08-21T01:45:40;23.38;;;11.30;;
30888;SDS011;51092;50.874;7.024;2022-08-21T01:46:42;16.88;;;11.45;;
30888;SDS011;51092;50.874;7.024;2022-08-21T01:47:44;22.35;;;10.75;;
30888;SDS011;51092;50.874;7.024;2022-08-21T01:48:48;21.60;;;12.23;;
30888;SDS011;51092;50.874;7.024;2022-08-21T01:49:50;21.13;;;10.85;;
30888;SDS011;51092;50.874;7.024;2022-08-21T01:50:52;29.05;;;12.02;;
30888;SDS011;51092;50.874;7.024;2022-08-21T01:51:54;20.13;;;11.25;;
30888;SDS011;51092;50.874;7.024;2022-08-21T01:52:58;23.33;;;11.73;;
30888;SDS011;51092;50.874;7.024;2022-08-21T01:53:59;25.00;;;12.27;;
30888;SDS011;51092;50.874;7.024;2022-08-21T01:55:03;21.15;;;11.25;;
30888;SDS011;51092;50.874;7.024;2022-08-21T01:56:06;18.80;;;11.32;;
30888;SDS011;51092;50.874;7.024;2022-08-21T01:57:10;15.82;;;11.85;;
30888;SDS011;51092;50.874;7.024;2022-08-21T01:58:12;20.73;;;11.63;;
30888;SDS011;51092;50.874;7.024;2022-08-21T01:59:15;24.70;;;12.45;;
30888;SDS011;51092;50.874;7.024;2022-08-21T02:00:19;21.63;;;13.65;;
30888;SDS011;51092;50.874;7.024;2022-08-21T02:01:24;23.88;;;12.50;;
30888;SDS011;51092;50.874;7.024;2022-08-21T02:02:26;17.38;;;11.57;;
30888;SDS011;51092;50.874;7.024;2022-08-21T02:03:28;19.52;;;11.38;;
30888;SDS011;51092;50.874;7.024;2022-08-21T02:04:30;19.52;;;12.48;;
30888;SDS011;51092;50.874;7.024;2022-08-21T02:05:33;18.92;;;12.88;;
30888;SDS011;51092;50.874;7.024;2022-08-21T02:06:35;17.30;;;10.02;;
30888;SDS011;51092;50.874;7.024;2022-08-21T02:07:39;17.63;;;11.02;;
30888;SDS011;51092;50.874;7.024;2022-08-21T02:08:44;21.67;;;12.40;;
30888;SDS011;51092;50.874;7.024;2022-08-21T02:09:48;17.73;;;11.70;;
30888;SDS011;51092;50.874;7.024;2022-08-21T02:10:50;17.63;;;10.68;;
30888;SDS011;51092;50.874;7.024;2022-08-21T02:11:53;18.67;;;11.13;;
30888;SDS011;51092;50.874;7.024;2022-08-21T02:12:55;19.45;;;11.07;;
30888;SDS011;51092;50.874;7.024;2022-08-21T02:13:59;18.48;;;11.35;;
30888;SDS011;51092;50.874;7.024;2022-08-21T02:15:00;15.73;;;10.60;;
30888;SDS011;51092;50.874;7.024;2022-08-21T02:16:04;20.88;;;11.10;;
30888;SDS011;51092;50.874;7.024;2022-08-21T02:17:07;15.65;;;10.57;;
30888;SDS011;51092;50.874;7.024;2022-08-21T02:18:10;15.02;;;10.75;;
30888;SDS011;51092;50.874;7.024;2022-08-21T02:19:12;13.70;;;10.35;;
30888;SDS011;51092;50.874;7.024;2022-08-21T02:20:17;15.25;;;9.88;;
30888;SDS011;51092;50.874;7.024;2022-08-21T02:21:21;17.60;;;10.68;;
30888;SDS011;51092;50.874;7.024;2022-08-21T02:22:23;20.30;;;11.70;;
30888;SDS011;51092;50.874;7.024;2022-08-21T02:23:25;14.57;;;10.05;;
30888;SDS011;51092;50.874;7.024;2022-08-21T02:24:29;22.13;;;12.18;;
30888;SDS011;51092;50.874;7.024;2022-08-21T02:25:31;15.57;;;10.80;;
30888;SDS011;51092;50.874;7.024;2022-08-21T02:26:33;15.93;;;9.52;;
30888;SDS011;51092;50.874;7.024;2022-08-21T02:27:37;14.90;;;10.25;;
30888;SDS011;51092;50.874;7.024;2022-08-21T02:28:41;17.60;;;11.23;;
30888;SDS011;51092;50.874;7.024;2022-08-21T02:29:43;17.15;;;10.85;;
30888;SDS011;51092;50.874;7.024;2022-08-21T02:30:46;14.20;;;9.82;;
30888;SDS011;51092;50.874;7.024;2022-08-21T02:31:48;13.98;;;11.52;;
30888;SDS011;51092;50.874;7.024;2022-08-21T02:32:51;18.08;;;10.20;;
30888;SDS011;51092;50.874;7.024;2022-08-21T02:33:53;18.13;;;10.88;;
30888;SDS011;51092;50.874;7.024;2022-08-21T02:34:55;16.80;;;11.15;;
30888;SDS011;51092;50.874;7.024;2022-08-21T02:35:57;17.98;;;10.57;;
30888;SDS011;51092;50.874;7.024;2022-08-21T02:37:00;17.35;;;10.63;;
30888;SDS011;51092;50.874;7.024;2022-08-21T02:38:03;16.67;;;10.38;;
30888;SDS011;51092;50.874;7.024;2022-08-21T02:39:08;15.55;;;10.15;;
30888;SDS011;51092;50.874;7.024;2022-08-21T02:40:11;15.23;;;10.48;;
30888;SDS011;51092;50.874;7.024;2022-08-21T02:41:16;18.73;;;11.05;;
30888;SDS011;51092;50.874;7.024;2022-08-21T02:42:20;17.50;;;11.18;;
30888;SDS011;51092;50.874;7.024;2022-08-21T02:43:22;16.58;;;10.63;;
30888;SDS011;51092;50.874;7.024;2022-08-21T02:44:26;14.07;;;9.77;;
30888;SDS011;51092;50.874;7.024;2022-08-21T02:45:30;15.57;;;10.20;;
30888;SDS011;51092;50.874;7.024;2022-08-21T02:46:36;17.33;;;10.23;;
30888;SDS011;51092;50.874;7.024;2022-08-21T02:47:38;16.92;;;11.02;;
30888;SDS011;51092;50.874;7.024;2022-08-21T02:48:41;16.00;;;11.45;;
30888;SDS011;51092;50.874;7.024;2022-08-21T02:49:43;17.70;;;11.05;;
30888;SDS011;51092;50.874;7.024;2022-08-21T02:50:47;18.73;;;11.93;;
30888;SDS011;51092;50.874;7.024;2022-08-21T02:51:53;17.05;;;10.43;;
30888;SDS011;51092;50.874;7.024;2022-08-21T02:52:56;14.82;;;10.57;;
30888;SDS011;51092;50.874;7.024;2022-08-21T02:53:58;16.38;;;11.23;;
30888;SDS011;51092;50.874;7.024;2022-08-21T02:55:00;13.60;;;10.05;;
30888;SDS011;51092;50.874;7.024;2022-08-21T02:56:04;16.17;;;11.13;;
30888;SDS011;51092;50.874;7.024;2022-08-21T02:57:10;16.52;;;11.27;;
30888;SDS011;51092;50.874;7.024;2022-08-21T02:58:11;14.65;;;10.52;;
30888;SDS011;51092;50.874;7.024;2022-08-21T02:59:15;15.85;;;10.32;;
30888;SDS011;51092;50.874;7.024;2022-08-21T03:00:16;16.30;;;10.20;;
30888;SDS011;51092;50.874;7.024;2022-08-21T03:01:19;18.65;;;11.65;;
30888;SDS011;51092;50.874;7.024;2022-08-21T03:02:22;15.35;;;10.32;;
30888;SDS011;51092;50.874;7.024;2022-08-21T03:03:25;19.30;;;10.45;;
30888;SDS011;51092;50.874;7.024;2022-08-21T03:04:28;18.10;;;11.45;;
30888;SDS011;51092;50.874;7.024;2022-08-21T03:05:31;19.15;;;11.50;;
30888;SDS011;51092;50.874;7.024;2022-08-21T03:06:35;16.60;;;10.75;;
30888;SDS011;51092;50.874;7.024;2022-08-21T03:07:38;15.13;;;10.30;;
30888;SDS011;51092;50.874;7.024;2022-08-21T03:08:40;14.98;;;10.07;;
30888;SDS011;51092;50.874;7.024;2022-08-21T03:09:45;16.95;;;11.40;;
30888;SDS011;51092;50.874;7.024;2022-08-21T03:10:48;15.05;;;10.35;;
30888;SDS011;51092;50.874;7.024;2022-08-21T03:11:52;17.23;;;11.02;;
30888;SDS011;51092;50.874;7.024;2022-08-21T03:12:57;20.15;;;11.10;;
30888;SDS011;51092;50.874;7.024;2022-08-21T03:14:00;13.85;;;10.13;;
30888;SDS011;51092;50.874;7.024;2022-08-21T03:15:02;18.42;;;11.07;;
30888;SDS011;51092;50.874;7.024;2022-08-21T03:16:06;19.75;;;10.60;;
30888;SDS011;51092;50.874;7.024;2022-08-21T03:17:07;16.20;;;10.13;;
30888;SDS011;51092;50.874;7.024;2022-08-21T03:18:10;16.00;;;10.93;;
30888;SDS011;51092;50.874;7.024;2022-08-21T03:19:12;17.05;;;10.85;;
30888;SDS011;51092;50.874;7.024;2022-08-21T03:20:16;13.52;;;9.48;;
30888;SDS011;51092;50.874;7.024;2022-08-21T03:21:20;14.20;;;10.68;;
30888;SDS011;51092;50.874;7.024;2022-08-21T03:22:23;14.02;;;10.32;;
30888;SDS011;51092;50.874;7.024;2022-08-21T03:23:24;18.48;;;11.25;;
30888;SDS011;51092;50.874;7.024;2022-08-21T03:24:27;15.43;;;9.95;;
30888;SDS011;51092;50.874;7.024;2022-08-21T03:25:29;13.80;;;10.52;;
30888;SDS011;51092;50.874;7.024;2022-08-21T03:26:35;14.50;;;9.88;;
30888;SDS011;51092;50.874;7.024;2022-08-21T03:27:38;14.07;;;10.10;;
30888;SDS011;51092;50.874;7.024;2022-08-21T03:28:40;13.50;;;9.82;;
30888;SDS011;51092;50.874;7.024;2022-08-21T03:29:41;14.55;;;10.68;;
30888;SDS011;51092;50.874;7.024;2022-08-21T03:30:44;14.68;;;9.63;;
30888;SDS011;51092;50.874;7.024;2022-08-21T03:31:46;16.35;;;10.73;;
30888;SDS011;51092;50.874;7.024;2022-08-21T03:32:48;19.85;;;10.82;;
30888;SDS011;51092;50.874;7.024;2022-08-21T03:33:51;16.63;;;10.20;;
30888;SDS011;51092;50.874;7.024;2022-08-21T03:34:55;15.15;;;10.20;;
30888;SDS011;51092;50.874;7.024;2022-08-21T03:35:59;16.90;;;9.73;;
30888;SDS011;51092;50.874;7.024;2022-08-21T03:37:02;16.33;;;10.35;;
30888;SDS011;51092;50.874;7.024;2022-08-21T03:38:05;18.23;;;10.48;;
30888;SDS011;51092;50.874;7.024;2022-08-21T03:39:07;12.60;;;9.57;;
30888;SDS011;51092;50.874;7.024;2022-08-21T03:40:11;17.80;;;10.50;;
30888;SDS011;51092;50.874;7.024;2022-08-21T03:41:13;15.68;;;9.95;;
30888;SDS011;51092;50.874;7.024;2022-08-21T03:42:16;15.25;;;10.02;;
30888;SDS011;51092;50.874;7.024;2022-08-21T03:43:19;17.95;;;10.48;;
30888;SDS011;51092;50.874;7.024;2022-08-21T03:44:21;16.13;;;10.30;;
30888;SDS011;51092;50.874;7.024;2022-08-21T03:45:23;17.90;;;10.80;;
30888;SDS011;51092;50.874;7.024;2022-08-21T03:46:25;15.75;;;10.68;;
30888;SDS011;51092;50.874;7.024;2022-08-21T03:47:27;12.60;;;9.02;;
30888;SDS011;51092;50.874;7.024;2022-08-21T03:48:29;15.00;;;10.48;;
30888;SDS011;51092;50.874;7.024;2022-08-21T03:49:32;17.42;;;10.15;;
30888;SDS011;51092;50.874;7.024;2022-08-21T03:50:35;16.02;;;10.40;;
30888;SDS011;51092;50.874;7.024;2022-08-21T03:51:38;13.05;;;10.07;;
30888;SDS011;51092;50.874;7.024;2022-08-21T03:52:40;14.50;;;10.30;;
30888;SDS011;51092;50.874;7.024;2022-08-21T03:53:42;16.05;;;10.07;;
30888;SDS011;51092;50.874;7.024;2022-08-21T03:54:45;15.02;;;10.65;;
30888;SDS011;51092;50.874;7.024;2022-08-21T03:55:47;13.57;;;10.50;;
30888;SDS011;51092;50.874;7.024;2022-08-21T03:56:51;17.38;;;10.18;;
30888;SDS011;51092;50.874;7.024;2022-08-21T03:57:53;17.35;;;10.82;;
30888;SDS011;51092;50.874;7.024;2022-08-21T03:58:57;15.25;;;10.38;;
30888;SDS011;51092;50.874;7.024;2022-08-21T03:59:59;18.23;;;10.73;;
30888;SDS011;51092;50.874;7.024;2022-08-21T04:01:00;18.90;;;10.77;;
30888;SDS011;51092;50.874;7.024;2022-08-21T04:02:05;18.85;;;10.85;;
30888;SDS011;51092;50.874;7.024;2022-08-21T04:03:07;19.35;;;11.20;;
30888;SDS011;51092;50.874;7.024;2022-08-21T04:04:09;20.70;;;11.25;;
30888;SDS011;51092;50.874;7.024;2022-08-21T04:05:11;14.20;;;10.48;;
30888;SDS011;51092;50.874;7.024;2022-08-21T04:06:14;14.25;;;11.02;;
30888;SDS011;51092;50.874;7.024;2022-08-21T04:07:16;14.95;;;10.02;;
30888;SDS011;51092;50.874;7.024;2022-08-21T04:08:19;16.80;;;10.70;;
30888;SDS011;51092;50.874;7.024;2022-08-21T04:09:20;15.10;;;11.25;;
30888;SDS011;51092;50.874;7.024;2022-08-21T04:10:23;17.50;;;10.75;;
30888;SDS011;51092;50.874;7.024;2022-08-21T04:11:25;14.27;;;11.23;;
30888;SDS011;51092;50.874;7.024;2022-08-21T04:12:28;14.55;;;10.80;;
30888;SDS011;51092;50.874;7.024;2022-08-21T04:13:30;14.00;;;11.43;;
30888;SDS011;51092;50.874;7.024;2022-08-21T04:14:34;15.45;;;11.20;;
30888;SDS011;51092;50.874;7.024;2022-08-21T04:15:36;18.95;;;11.88;;
30888;SDS011;51092;50.874;7.024;2022-08-21T04:16:38;15.38;;;10.93;;
30888;SDS011;51092;50.874;7.024;2022-08-21T04:17:40;19.48;;;12.48;;
30888;SDS011;51092;50.874;7.024;2022-08-21T04:18:43;18.83;;;12.48;;
30888;SDS011;51092;50.874;7.024;2022-08-21T04:19:44;20.90;;;12.40;;
30888;SDS011;51092;50.874;7.024;2022-08-21T04:20:47;21.23;;;12.88;;
30888;SDS011;51092;50.874;7.024;2022-08-21T04:21:52;17.48;;;12.63;;
30888;SDS011;51092;50.874;7.024;2022-08-21T04:22:54;18.65;;;14.07;;
30888;SDS011;51092;50.874;7.024;2022-08-21T04:23:56;17.23;;;12.70;;
30888;SDS011;51092;50.874;7.024;2022-08-21T04:25:01;18.30;;;13.23;;
30888;SDS011;51092;50.874;7.024;2022-08-21T04:26:02;23.90;;;13.75;;
30888;SDS011;51092;50.874;7.024;2022-08-21T04:27:06;17.58;;;12.57;;
30888;SDS011;51092;50.874;7.024;2022-08-21T04:28:08;21.52;;;14.90;;
30888;SDS011;51092;50.874;7.024;2022-08-21T04:29:10;18.40;;;11.30;;
30888;SDS011;51092;50.874;7.024;2022-08-21T04:30:14;22.42;;;11.63;;
30888;SDS011;51092;50.874;7.024;2022-08-21T04:31:17;15.88;;;11.45;;
30888;SDS011;51092;50.874;7.024;2022-08-21T04:32:21;17.92;;;11.88;;
30888;SDS011;51092;50.874;7.024;2022-08-21T04:33:24;19.00;;;13.23;;
30888;SDS011;51092;50.874;7.024;2022-08-21T04:34:26;13.13;;;10.98;;
30888;SDS011;51092;50.874;7.024;2022-08-21T04:35:28;17.67;;;12.20;;
30888;SDS011;51092;50.874;7.024;2022-08-21T04:36:30;19.10;;;11.35;;
30888;SDS011;51092;50.874;7.024;2022-08-21T04:37:33;18.92;;;12.63;;
30888;SDS011;51092;50.874;7.024;2022-08-21T04:38:35;15.85;;;12.20;;
30888;SDS011;51092;50.874;7.024;2022-08-21T04:39:38;20.02;;;12.27;;
30888;SDS011;51092;50.874;7.024;2022-08-21T04:40:39;18.30;;;12.93;;
30888;SDS011;51092;50.874;7.024;2022-08-21T04:41:41;18.20;;;12.45;;
30888;SDS011;51092;50.874;7.024;2022-08-21T04:42:44;14.35;;;12.35;;
30888;SDS011;51092;50.874;7.024;2022-08-21T04:43:50;18.42;;;13.25;;
30888;SDS011;51092;50.874;7.024;2022-08-21T04:44:52;21.33;;;12.75;;
30888;SDS011;51092;50.874;7.024;2022-08-21T04:45:57;16.55;;;12.18;;
30888;SDS011;51092;50.874;7.024;2022-08-21T04:47:03;15.98;;;12.25;;
30888;SDS011;51092;50.874;7.024;2022-08-21T04:48:06;13.65;;;11.82;;
30888;SDS011;51092;50.874;7.024;2022-08-21T04:49:09;16.67;;;12.13;;
30888;SDS011;51092;50.874;7.024;2022-08-21T04:50:11;18.10;;;11.90;;
30888;SDS011;51092;50.874;7.024;2022-08-21T04:51:15;15.00;;;11.48;;
30888;SDS011;51092;50.874;7.024;2022-08-21T04:52:21;20.92;;;12.70;;
30888;SDS011;51092;50.874;7.024;2022-08-21T04:53:26;17.45;;;12.23;;
30888;SDS011;51092;50.874;7.024;2022-08-21T04:54:33;16.45;;;11.48;;
30888;SDS011;51092;50.874;7.024;2022-08-21T04:55:34;16.23;;;11.98;;
30888;SDS011;51092;50.874;7.024;2022-08-21T04:56:39;18.63;;;13.02;;
30888;SDS011;51092;50.874;7.024;2022-08-21T04:57:44;15.43;;;12.20;;
30888;SDS011;51092;50.874;7.024;2022-08-21T04:58:47;15.10;;;12.02;;
30888;SDS011;51092;50.874;7.024;2022-08-21T04:59:50;16.75;;;12.50;;
30888;SDS011;51092;50.874;7.024;2022-08-21T05:00:53;22.15;;;12.13;;
30888;SDS011;51092;50.874;7.024;2022-08-21T05:01:57;16.42;;;12.48;;
30888;SDS011;51092;50.874;7.024;2022-08-21T05:03:01;16.00;;;11.80;;
30888;SDS011;51092;50.874;7.024;2022-08-21T05:04:07;16.90;;;12.32;;
30888;SDS011;51092;50.874;7.024;2022-08-21T05:05:11;16.27;;;12.38;;
30888;SDS011;51092;50.874;7.024;2022-08-21T05:06:13;21.52;;;12.02;;
30888;SDS011;51092;50.874;7.024;2022-08-21T05:07:19;19.40;;;12.70;;
30888;SDS011;51092;50.874;7.024;2022-08-21T05:08:28;16.63;;;12.98;;
30888;SDS011;51092;50.874;7.024;2022-08-21T05:09:30;14.68;;;11.70;;
30888;SDS011;51092;50.874;7.024;2022-08-21T05:10:33;19.75;;;11.98;;
30888;SDS011;51092;50.874;7.024;2022-08-21T05:11:36;17.48;;;12.98;;
30888;SDS011;51092;50.874;7.024;2022-08-21T05:12:38;17.77;;;13.30;;
30888;SDS011;51092;50.874;7.024;2022-08-21T05:13:42;17.25;;;11.20;;
30888;SDS011;51092;50.874;7.024;2022-08-21T05:14:44;16.98;;;12.45;;
30888;SDS011;51092;50.874;7.024;2022-08-21T05:15:46;17.33;;;12.27;;
30888;SDS011;51092;50.874;7.024;2022-08-21T05:16:48;18.08;;;12.68;;
30888;SDS011;51092;50.874;7.024;2022-08-21T05:17:52;17.90;;;12.48;;
30888;SDS011;51092;50.874;7.024;2022-08-21T05:18:53;18.58;;;11.65;;
30888;SDS011;51092;50.874;7.024;2022-08-21T05:19:55;13.18;;;11.23;;
30888;SDS011;51092;50.874;7.024;2022-08-21T05:20:56;16.42;;;11.38;;
30888;SDS011;51092;50.874;7.024;2022-08-21T05:21:57;16.92;;;11.80;;
30888;SDS011;51092;50.874;7.024;2022-08-21T05:22:59;19.33;;;11.40;;
30888;SDS011;51092;50.874;7.024;2022-08-21T05:24:03;20.70;;;11.57;;
30888;SDS011;51092;50.874;7.024;2022-08-21T05:25:05;14.98;;;11.60;;
30888;SDS011;51092;50.874;7.024;2022-08-21T05:26:09;20.80;;;12.65;;
30888;SDS011;51092;50.874;7.024;2022-08-21T05:27:11;17.30;;;11.95;;
30888;SDS011;51092;50.874;7.024;2022-08-21T05:28:14;21.80;;;12.25;;
30888;SDS011;51092;50.874;7.024;2022-08-21T05:29:15;16.50;;;10.85;;
30888;SDS011;51092;50.874;7.024;2022-08-21T05:30:19;20.15;;;12.48;;
30888;SDS011;51092;50.874;7.024;2022-08-21T05:31:21;15.98;;;11.48;;
30888;SDS011;51092;50.874;7.024;2022-08-21T05:32:24;15.32;;;11.50;;
30888;SDS011;51092;50.874;7.024;2022-08-21T05:33:27;16.23;;;11.50;;
30888;SDS011;51092;50.874;7.024;2022-08-21T05:34:29;15.57;;;10.52;;
30888;SDS011;51092;50.874;7.024;2022-08-21T05:35:31;15.73;;;10.82;;
30888;SDS011;51092;50.874;7.024;2022-08-21T05:36:34;17.85;;;11.25;;
30888;SDS011;51092;50.874;7.024;2022-08-21T05:37:36;17.38;;;11.23;;
30888;SDS011;51092;50.874;7.024;2022-08-21T05:38:38;17.98;;;11.07;;
30888;SDS011;51092;50.874;7.024;2022-08-21T05:39:40;13.30;;;10.35;;
30888;SDS011;51092;50.874;7.024;2022-08-21T05:40:45;20.25;;;11.45;;
30888;SDS011;51092;50.874;7.024;2022-08-21T05:41:47;20.67;;;11.73;;
30888;SDS011;51092;50.874;7.024;2022-08-21T05:42:53;19.73;;;11.70;;
30888;SDS011;51092;50.874;7.024;2022-08-21T05:43:55;15.77;;;10.18;;
30888;SDS011;51092;50.874;7.024;2022-08-21T05:45:01;19.88;;;11.65;;
30888;SDS011;51092;50.874;7.024;2022-08-21T05:46:02;14.68;;;10.48;;
30888;SDS011;51092;50.874;7.024;2022-08-21T05:47:06;18.33;;;11.88;;
30888;SDS011;51092;50.874;7.024;2022-08-21T05:48:10;15.25;;;11.57;;
30888;SDS011;51092;50.874;7.024;2022-08-21T05:49:16;20.00;;;11.30;;
30888;SDS011;51092;50.874;7.024;2022-08-21T05:50:17;17.23;;;12.00;;
30888;SDS011;51092;50.874;7.024;2022-08-21T05:51:20;15.95;;;11.80;;
30888;SDS011;51092;50.874;7.024;2022-08-21T05:52:22;17.80;;;11.63;;
30888;SDS011;51092;50.874;7.024;2022-08-21T05:53:25;16.60;;;11.02;;
30888;SDS011;51092;50.874;7.024;2022-08-21T05:54:27;17.77;;;10.98;;
30888;SDS011;51092;50.874;7.024;2022-08-21T05:55:31;14.75;;;12.38;;
30888;SDS011;51092;50.874;7.024;2022-08-21T05:56:36;20.15;;;11.50;;
30888;SDS011;51092;50.874;7.024;2022-08-21T05:57:38;12.30;;;10.25;;
30888;SDS011;51092;50.874;7.024;2022-08-21T05:58:41;16.23;;;11.50;;
30888;SDS011;51092;50.874;7.024;2022-08-21T05:59:49;17.13;;;11.60;;
30888;SDS011;51092;50.874;7.024;2022-08-21T06:00:53;16.27;;;10.40;;
30888;SDS011;51092;50.874;7.024;2022-08-21T06:01:56;16.00;;;11.07;;
30888;SDS011;51092;50.874;7.024;2022-08-21T06:02:58;17.50;;;11.30;;
30888;SDS011;51092;50.874;7.024;2022-08-21T06:04:01;16.23;;;11.45;;
30888;SDS011;51092;50.874;7.024;2022-08-21T06:05:04;16.08;;;10.85;;
30888;SDS011;51092;50.874;7.024;2022-08-21T06:06:08;13.60;;;9.85;;
30888;SDS011;51092;50.874;7.024;2022-08-21T06:07:10;18.23;;;11.55;;
30888;SDS011;51092;50.874;7.024;2022-08-21T06:08:11;18.20;;;10.93;;
30888;SDS011;51092;50.874;7.024;2022-08-21T06:09:14;16.73;;;10.70;;
30888;SDS011;51092;50.874;7.024;2022-08-21T06:10:15;14.85;;;10.68;;